Time;durP1;ratioP1;P1;durP2;ratioP2;P2;SDS_P1;SDS_P2;PMS_P1;PMS_P2;Temp;Humidity;BMP_temperature;BMP_pressure;BME280_temperature;BME280_humidity;BME280_pressure;Samples;Min_cycle;Max_cycle;Signal;HPM_P1;HPM_P2
2023/03/25 00:02:22;;;;;;;11.52;8.60;;;13.30;99.90;;;;;;5080638;28;20417;-76
2023/03/25 00:04:53;;;;;;;10.05;8.25;;;13.30;99.90;;;;;;5071651;28;20516;-76
2023/03/25 00:07:21;;;;;;;10.65;8.60;;;13.30;99.90;;;;;;5075537;28;20502;-76
2023/03/25 00:09:48;;;;;;;13.68;8.70;;;13.30;99.90;;;;;;5073013;28;20430;-76
2023/03/25 00:12:15;;;;;;;10.82;8.10;;;13.30;99.90;;;;;;5099187;27;20414;-76
2023/03/25 00:14:43;;;;;;;13.33;8.23;;;13.30;99.90;;;;;;5075101;28;20615;-76
2023/03/25 00:17:09;;;;;;;12.40;8.10;;;13.30;99.90;;;;;;5066740;28;20781;-76
2023/03/25 00:19:36;;;;;;;12.93;7.45;;;13.20;99.90;;;;;;5074112;28;20765;-76
2023/03/25 00:22:02;;;;;;;12.45;7.80;;;13.20;99.90;;;;;;5067715;28;20418;-76
2023/03/25 00:24:28;;;;;;;13.85;7.95;;;13.20;99.90;;;;;;5077704;28;20422;-76
2023/03/25 00:26:55;;;;;;;10.63;7.40;;;13.20;99.90;;;;;;5072578;28;20419;-76
2023/03/25 00:29:21;;;;;;;11.83;7.97;;;13.20;99.90;;;;;;5070678;28;20432;-76
2023/03/25 00:31:48;;;;;;;10.13;7.43;;;13.20;99.90;;;;;;5076985;28;20416;-76
2023/03/25 00:34:14;;;;;;;10.52;7.75;;;13.20;99.90;;;;;;5080582;28;20454;-77
2023/03/25 00:36:42;;;;;;;13.25;7.18;;;13.20;99.90;;;;;;5078874;28;20438;-77
2023/03/25 00:39:09;;;;;;;11.68;7.32;;;13.20;99.90;;;;;;5068998;28;20411;-78
2023/03/25 00:41:36;;;;;;;11.27;7.10;;;13.10;99.90;;;;;;5063688;28;20412;-77
2023/03/25 00:44:03;;;;;;;8.82;6.75;;;13.10;99.90;;;;;;5079388;28;20409;-77
2023/03/25 00:46:32;;;;;;;10.55;7.07;;;13.10;99.90;;;;;;5073810;28;20926;-78
2023/03/25 00:48:59;;;;;;;16.95;7.32;;;13.00;99.90;;;;;;5074764;28;21035;-78
2023/03/25 00:51:29;;;;;;;10.38;7.32;;;13.10;99.90;;;;;;5077228;28;20403;-78
2023/03/25 00:54:02;;;;;;;15.57;7.93;;;13.00;99.90;;;;;;5071935;28;20513;-78
2023/03/25 00:56:29;;;;;;;12.98;7.32;;;13.00;99.90;;;;;;5097687;27;20409;-78
2023/03/25 00:58:56;;;;;;;10.90;7.03;;;12.90;99.90;;;;;;5088761;28;20398;-77
2023/03/25 01:01:27;;;;;;;14.40;7.40;;;12.90;99.90;;;;;;5064696;28;20904;-75
2023/03/25 01:03:57;;;;;;;12.67;7.63;;;12.80;99.90;;;;;;5067959;28;20434;-75
2023/03/25 01:06:31;;;;;;;10.10;7.47;;;12.70;99.90;;;;;;5067611;28;20450;-75
2023/03/25 01:09:00;;;;;;;13.23;7.97;;;12.80;99.90;;;;;;5065390;28;20415;-75
2023/03/25 01:11:33;;;;;;;10.32;6.78;;;12.60;99.90;;;;;;5084217;28;20429;-76
2023/03/25 01:14:01;;;;;;;11.75;7.07;;;12.60;99.90;;;;;;5051160;28;20418;-76
2023/03/25 01:16:28;;;;;;;9.73;6.82;;;12.60;99.90;;;;;;5072187;28;20510;-76
2023/03/25 01:18:55;;;;;;;11.97;6.63;;;12.60;99.90;;;;;;5074101;28;20928;-76
2023/03/25 01:21:22;;;;;;;11.10;6.68;;;12.60;99.90;;;;;;5071357;28;20459;-77
2023/03/25 01:23:48;;;;;;;11.45;6.70;;;12.50;99.90;;;;;;5069650;28;20408;-77
2023/03/25 01:26:15;;;;;;;10.65;7.00;;;12.50;99.90;;;;;;5071725;28;20477;-77
2023/03/25 01:29:10;;;;;;;14.85;7.30;;;12.40;99.90;;;;;;5066539;28;20710;-75
2023/03/25 01:31:36;;;;;;;11.50;6.80;;;12.40;99.90;;;;;;5068945;28;20423;-76
2023/03/25 01:34:02;;;;;;;12.65;7.30;;;12.30;99.90;;;;;;5056970;28;20409;-76
2023/03/25 01:36:29;;;;;;;13.27;7.07;;;12.30;99.90;;;;;;5079652;28;20405;-76
2023/03/25 01:38:58;;;;;;;10.98;6.63;;;12.30;99.90;;;;;;5073729;28;20977;-77
2023/03/25 01:41:27;;;;;;;9.13;6.47;;;12.20;99.90;;;;;;5066946;28;20442;-76
2023/03/25 01:44:18;;;;;;;12.13;6.53;;;12.20;99.90;;;;;;5100450;27;20409;-76
2023/03/25 01:46:48;;;;;;;12.98;6.80;;;12.20;99.90;;;;;;5068033;28;20414;-77
2023/03/25 01:49:25;;;;;;;13.45;7.25;;;12.10;99.90;;;;;;5051701;28;20418;-76
2023/03/25 01:52:04;;;;;;;13.20;7.13;;;12.10;99.90;;;;;;5075808;28;20951;-76
2023/03/25 01:54:31;;;;;;;10.98;7.00;;;12.00;99.90;;;;;;5091407;28;20441;-77
2023/03/25 01:56:58;;;;;;;9.80;6.90;;;12.10;99.90;;;;;;5088104;27;20427;-77
2023/03/25 01:59:27;;;;;;;11.13;6.80;;;12.10;99.90;;;;;;5058557;28;20964;-77
2023/03/25 02:02:02;;;;;;;10.07;6.97;;;12.20;99.90;;;;;;5071527;28;20415;-76
2023/03/25 02:04:50;;;;;;;10.98;6.78;;;12.20;99.90;;;;;;5071617;28;20445;-76
2023/03/25 02:07:18;;;;;;;12.90;7.40;;;12.20;99.90;;;;;;5069569;28;20418;-77
2023/03/25 02:09:45;;;;;;;12.50;7.38;;;12.10;99.90;;;;;;5073235;28;20504;-79
2023/03/25 02:12:11;;;;;;;11.13;8.15;;;12.20;99.90;;;;;;5058304;28;20445;-76
2023/03/25 02:14:41;;;;;;;11.50;8.32;;;12.20;99.90;;;;;;5073965;28;20847;-76
2023/03/25 02:17:41;;;;;;;10.15;7.63;;;12.30;99.90;;;;;;5075205;28;20455;-76
2023/03/25 02:21:16;;;;;;;13.30;7.68;;;12.30;99.90;;;;;;5075920;28;20410;-77
2023/03/25 02:24:22;;;;;;;13.93;8.88;;;12.30;99.90;;;;;;5051614;28;20414;-78
2023/03/25 02:27:25;;;;;;;11.15;8.38;;;12.40;99.90;;;;;;5059510;28;20430;-77
2023/03/25 02:30:35;;;;;;;13.77;8.93;;;12.40;99.90;;;;;;5076949;28;21001;-78
2023/03/25 02:33:26;;;;;;;13.18;9.60;;;12.50;99.90;;;;;;5072994;28;20768;-78
2023/03/25 02:36:52;;;;;;;11.15;9.10;;;12.50;99.90;;;;;;5056086;28;20412;-78
2023/03/25 02:39:46;;;;;;;13.90;8.57;;;12.50;99.90;;;;;;5038030;28;20599;-77
2023/03/25 02:42:31;;;;;;;13.73;9.15;;;12.60;99.90;;;;;;5066906;28;20966;-76
2023/03/25 02:45:39;;;;;;;12.52;8.93;;;12.60;99.90;;;;;;5100322;27;20464;-76
2023/03/25 02:48:32;;;;;;;14.98;9.05;;;12.60;99.90;;;;;;5021143;28;20412;-76
2023/03/25 02:51:09;;;;;;;15.15;9.52;;;12.60;99.90;;;;;;5051894;28;21217;-77
2023/03/25 02:53:38;;;;;;;13.23;8.88;;;12.60;99.90;;;;;;5086917;27;20504;-75
2023/03/25 02:56:11;;;;;;;12.63;9.02;;;12.60;99.90;;;;;;5065045;28;20448;-74
2023/03/25 02:58:39;;;;;;;14.50;9.18;;;12.60;99.90;;;;;;5069933;28;20442;-75
2023/03/25 03:01:08;;;;;;;12.05;8.82;;;12.60;99.90;;;;;;5071637;28;20422;-76
2023/03/25 03:03:35;;;;;;;11.23;9.23;;;12.60;99.90;;;;;;5088733;28;20419;-75
2023/03/25 03:06:05;;;;;;;12.23;8.52;;;12.60;99.90;;;;;;5069773;28;20438;-76
2023/03/25 03:08:48;;;;;;;11.88;8.63;;;12.60;99.90;;;;;;5065780;28;20411;-76
2023/03/25 03:11:37;;;;;;;13.10;8.45;;;12.70;99.90;;;;;;5072023;28;20413;-76
2023/03/25 03:14:32;;;;;;;11.57;7.80;;;12.60;99.90;;;;;;5064644;28;20450;-76
2023/03/25 03:17:18;;;;;;;12.82;8.00;;;12.60;99.90;;;;;;5073709;28;20491;-76
2023/03/25 03:20:18;;;;;;;9.97;7.73;;;12.60;99.90;;;;;;5069667;28;20499;-77
2023/03/25 03:23:05;;;;;;;10.80;7.80;;;12.60;99.90;;;;;;5097271;27;20932;-76
2023/03/25 03:25:43;;;;;;;11.00;7.73;;;12.50;99.90;;;;;;5073350;28;20948;-76
2023/03/25 03:28:23;;;;;;;14.07;8.25;;;12.50;99.90;;;;;;5069567;28;20411;-76
2023/03/25 03:31:14;;;;;;;13.27;7.37;;;12.40;99.90;;;;;;5074832;28;20516;-76
2023/03/25 03:34:01;;;;;;;10.27;6.63;;;12.40;99.90;;;;;;5070897;28;20444;-76
2023/03/25 03:36:40;;;;;;;10.45;6.90;;;12.30;99.90;;;;;;5084840;27;20423;-75
2023/03/25 03:39:19;;;;;;;11.43;6.73;;;12.30;99.90;;;;;;5064983;28;20415;-76
2023/03/25 03:41:52;;;;;;;12.13;6.20;;;12.20;99.90;;;;;;5084313;27;20448;-75
2023/03/25 03:44:28;;;;;;;9.55;5.75;;;12.10;99.90;;;;;;5083185;28;20469;-76
2023/03/25 03:47:18;;;;;;;10.48;5.88;;;12.10;99.90;;;;;;5066766;28;20758;-75
2023/03/25 03:49:51;;;;;;;11.45;5.72;;;12.10;99.90;;;;;;5099389;27;20420;-75
2023/03/25 03:52:36;;;;;;;9.63;5.13;;;12.00;99.90;;;;;;5071198;28;20478;-77
2023/03/25 03:55:28;;;;;;;9.80;5.18;;;12.10;99.90;;;;;;5071219;28;20545;-76
2023/03/25 03:58:08;;;;;;;7.85;5.32;;;12.00;99.90;;;;;;5085357;27;20424;-76
2023/03/25 04:01:01;;;;;;;7.88;5.18;;;12.00;99.90;;;;;;5071024;28;20416;-76
2023/03/25 04:03:47;;;;;;;9.27;5.30;;;12.10;99.90;;;;;;5072629;28;20430;-76
2023/03/25 04:06:40;;;;;;;8.80;5.55;;;12.10;99.90;;;;;;5068075;28;20419;-77
2023/03/25 04:09:33;;;;;;;8.90;5.07;;;12.10;99.90;;;;;;5069768;28;20710;-76
2023/03/25 04:12:04;;;;;;;10.70;5.38;;;12.20;99.90;;;;;;5055968;28;20458;-76
2023/03/25 04:14:31;;;;;;;8.98;5.32;;;12.20;99.90;;;;;;5070768;28;20422;-76
2023/03/25 04:16:58;;;;;;;11.80;5.60;;;12.20;99.90;;;;;;5068617;28;20492;-76
2023/03/25 04:19:26;;;;;;;9.07;5.47;;;12.20;99.90;;;;;;5071048;28;20406;-76
2023/03/25 04:21:52;;;;;;;10.95;5.55;;;12.30;99.90;;;;;;5070667;28;20411;-76
2023/03/25 04:24:19;;;;;;;13.13;6.47;;;12.40;99.90;;;;;;5068993;28;20411;-76
2023/03/25 04:26:46;;;;;;;7.93;5.50;;;12.40;99.90;;;;;;5075121;28;20492;-76
2023/03/25 04:29:12;;;;;;;8.85;6.00;;;12.40;99.90;;;;;;5054875;28;21198;-77
2023/03/25 04:31:44;;;;;;;9.38;6.03;;;12.40;99.90;;;;;;5068355;28;20859;-77
2023/03/25 04:34:15;;;;;;;7.83;5.80;;;12.50;99.90;;;;;;5068053;28;20516;-77
2023/03/25 04:36:41;;;;;;;9.10;6.05;;;12.50;99.90;;;;;;5066829;28;20855;-76
2023/03/25 04:39:16;;;;;;;8.75;5.70;;;12.60;99.90;;;;;;5067377;28;20423;-77
2023/03/25 04:41:43;;;;;;;7.78;5.65;;;12.60;99.90;;;;;;5069276;28;20522;-77
2023/03/25 04:44:11;;;;;;;9.80;6.20;;;12.70;99.90;;;;;;5070579;28;20882;-77
2023/03/25 04:46:37;;;;;;;10.93;6.10;;;12.70;99.90;;;;;;5078433;28;20866;-76
2023/03/25 04:49:05;;;;;;;9.23;5.95;;;12.80;99.90;;;;;;5068806;28;20479;-77
2023/03/25 04:51:32;;;;;;;10.73;6.50;;;12.80;99.90;;;;;;5065366;28;20449;-76
2023/03/25 04:53:58;;;;;;;11.57;6.35;;;12.90;99.90;;;;;;5068460;28;20414;-76
2023/03/25 04:56:25;;;;;;;9.13;6.30;;;12.90;99.90;;;;;;5073125;28;20805;-77
2023/03/25 04:58:52;;;;;;;8.90;5.63;;;12.90;99.90;;;;;;5085338;28;21016;-76
2023/03/25 05:01:32;;;;;;;12.52;6.07;;;13.00;99.90;;;;;;5069435;28;20428;-76
2023/03/25 05:04:06;;;;;;;10.23;6.10;;;13.00;99.90;;;;;;5100667;27;20944;-75
2023/03/25 05:06:38;;;;;;;11.05;6.03;;;13.00;99.90;;;;;;5077464;28;20411;-75
2023/03/25 05:09:07;;;;;;;10.52;6.07;;;13.10;99.90;;;;;;5069832;28;20938;-76
2023/03/25 05:11:38;;;;;;;10.65;6.10;;;13.10;99.90;;;;;;5071528;28;20431;-76
2023/03/25 05:14:05;;;;;;;10.65;5.90;;;13.10;99.90;;;;;;5103235;27;20423;-76
2023/03/25 05:16:33;;;;;;;9.80;5.80;;;13.20;99.90;;;;;;5070192;28;20416;-75
2023/03/25 05:18:59;;;;;;;9.20;6.03;;;13.20;99.90;;;;;;5074750;28;20472;-76
2023/03/25 05:21:26;;;;;;;9.57;5.78;;;13.20;99.90;;;;;;5068831;28;20430;-75
2023/03/25 05:23:53;;;;;;;8.73;5.80;;;13.20;99.90;;;;;;5073118;28;20409;-76
2023/03/25 05:26:19;;;;;;;10.20;6.25;;;13.30;99.90;;;;;;5068336;28;20431;-76
2023/03/25 05:28:50;;;;;;;9.52;6.32;;;13.30;99.90;;;;;;5058468;28;20411;-76
2023/03/25 05:31:17;;;;;;;10.50;6.53;;;13.40;99.90;;;;;;5066085;28;20448;-76
2023/03/25 05:33:43;;;;;;;12.55;6.80;;;13.40;99.90;;;;;;5078110;28;20451;-76
2023/03/25 05:36:11;;;;;;;10.95;6.50;;;13.40;99.90;;;;;;5071664;28;20442;-76
2023/03/25 05:38:43;;;;;;;11.20;6.37;;;13.40;99.90;;;;;;5070015;28;20425;-75
2023/03/25 05:41:17;;;;;;;11.85;6.53;;;13.40;99.90;;;;;;5089478;27;21014;-76
2023/03/25 05:43:49;;;;;;;15.13;7.10;;;13.40;99.90;;;;;;5085246;27;20426;-76
2023/03/25 05:46:18;;;;;;;12.60;7.18;;;13.40;99.90;;;;;;5073017;28;20448;-76
2023/03/25 05:48:45;;;;;;;10.02;6.38;;;13.40;99.90;;;;;;5076563;28;20788;-76
2023/03/25 05:51:20;;;;;;;9.07;6.03;;;13.40;99.90;;;;;;5072139;28;20514;-76
2023/03/25 05:53:50;;;;;;;12.88;6.72;;;13.50;99.90;;;;;;5054157;28;20412;-75
2023/03/25 05:56:19;;;;;;;10.10;6.22;;;13.50;99.90;;;;;;5057233;28;20420;-76
2023/03/25 05:58:51;;;;;;;12.13;6.45;;;13.50;99.90;;;;;;5071511;28;21012;-76
2023/03/25 06:01:20;;;;;;;9.77;6.00;;;13.50;99.90;;;;;;5072543;28;20419;-76
2023/03/25 06:03:47;;;;;;;12.63;5.80;;;13.60;99.90;;;;;;5074699;28;20416;-76
2023/03/25 06:06:18;;;;;;;14.70;6.47;;;13.60;99.90;;;;;;5075801;28;20433;-77
2023/03/25 06:08:48;;;;;;;11.50;6.57;;;13.70;99.90;;;;;;5096651;27;20423;-76
2023/03/25 06:11:17;;;;;;;10.27;6.18;;;13.60;99.90;;;;;;5073814;28;21260;-77
2023/03/25 06:13:48;;;;;;;11.45;6.35;;;13.70;99.90;;;;;;5058543;28;20407;-76
2023/03/25 06:16:22;;;;;;;10.25;6.00;;;13.70;99.90;;;;;;5069309;28;21154;-77
2023/03/25 06:18:54;;;;;;;13.65;6.70;;;13.80;99.90;;;;;;5070831;28;20408;-76
2023/03/25 06:21:22;;;;;;;11.35;5.82;;;13.80;99.90;;;;;;5075552;28;20422;-76
2023/03/25 06:23:49;;;;;;;11.10;5.82;;;13.90;99.90;;;;;;5071158;28;20434;-76
2023/03/25 06:26:17;;;;;;;14.17;6.13;;;14.00;99.90;;;;;;5072105;28;20426;-76
2023/03/25 06:28:43;;;;;;;15.02;5.95;;;14.00;99.90;;;;;;5066599;28;20415;-76
2023/03/25 06:31:26;;;;;;;12.07;6.05;;;14.00;99.90;;;;;;5066900;28;20413;-76
2023/03/25 06:33:54;;;;;;;14.17;6.13;;;14.10;99.90;;;;;;5067350;28;20426;-76
2023/03/25 06:36:21;;;;;;;10.60;5.68;;;14.20;99.90;;;;;;5070061;28;20412;-76
2023/03/25 06:38:49;;;;;;;13.77;6.00;;;14.30;99.90;;;;;;5058303;28;20489;-76
2023/03/25 06:41:20;;;;;;;8.23;5.53;;;14.30;99.90;;;;;;5071044;28;20985;-76
2023/03/25 06:43:48;;;;;;;10.07;5.00;;;14.40;99.90;;;;;;5079907;28;20432;-76
2023/03/25 06:46:15;;;;;;;9.68;5.00;;;14.40;99.90;;;;;;5075654;28;20469;-76
2023/03/25 06:48:41;;;;;;;9.38;5.20;;;14.50;99.90;;;;;;5069323;28;20501;-76
2023/03/25 06:51:08;;;;;;;10.45;4.97;;;14.60;99.90;;;;;;5073144;28;20523;-76
2023/03/25 06:53:34;;;;;;;11.33;5.10;;;14.70;99.90;;;;;;5059104;28;20622;-76
2023/03/25 06:56:00;;;;;;;11.05;5.13;;;14.70;99.90;;;;;;5067134;28;20444;-77
2023/03/25 06:58:33;;;;;;;8.80;5.00;;;14.60;99.90;;;;;;5073519;28;20404;-77
2023/03/25 07:01:05;;;;;;;10.88;4.82;;;14.70;99.90;;;;;;5087059;28;20414;-76
2023/03/25 07:03:33;;;;;;;11.15;4.72;;;14.80;99.90;;;;;;5100190;27;20857;-77
2023/03/25 07:05:59;;;;;;;9.35;4.47;;;14.90;99.90;;;;;;5072081;28;20498;-76
2023/03/25 07:08:25;;;;;;;10.70;4.67;;;15.10;99.90;;;;;;5077209;28;20423;-76
2023/03/25 07:10:52;;;;;;;10.85;4.47;;;15.10;99.90;;;;;;5057933;28;20419;-75
2023/03/25 07:13:18;;;;;;;8.60;4.38;;;15.10;99.90;;;;;;5052421;28;20531;-76
2023/03/25 07:15:44;;;;;;;10.48;4.75;;;15.20;99.90;;;;;;5097360;27;20405;-77
2023/03/25 07:18:11;;;;;;;9.73;4.35;;;15.40;99.90;;;;;;5071291;28;20430;-76
2023/03/25 07:20:37;;;;;;;11.00;4.53;;;15.40;99.90;;;;;;5069406;28;20416;-76
2023/03/25 07:23:03;;;;;;;10.32;4.90;;;15.40;99.90;;;;;;5051062;28;20423;-76
2023/03/25 07:25:29;;;;;;;10.73;4.95;;;15.40;99.90;;;;;;5076447;28;20423;-77
2023/03/25 07:27:55;;;;;;;10.57;4.57;;;15.50;99.90;;;;;;5065056;28;21218;-77
2023/03/25 07:30:22;;;;;;;12.25;4.75;;;15.60;99.90;;;;;;5070782;28;20509;-77
2023/03/25 07:32:48;;;;;;;10.18;4.53;;;15.70;99.90;;;;;;5071876;28;20765;-77
2023/03/25 07:35:14;;;;;;;10.48;4.50;;;15.70;99.90;;;;;;5069796;28;20430;-76
2023/03/25 07:37:40;;;;;;;7.65;4.22;;;15.80;99.90;;;;;;5069194;28;20414;-77
2023/03/25 07:40:07;;;;;;;10.65;4.47;;;15.90;99.90;;;;;;5073637;28;20415;-76
2023/03/25 07:42:37;;;;;;;9.70;4.30;;;16.00;99.90;;;;;;5074425;28;20453;-76
2023/03/25 07:45:06;;;;;;;10.88;4.38;;;16.00;99.90;;;;;;5068807;28;20410;-74
2023/03/25 07:47:33;;;;;;;9.40;4.20;;;16.00;99.90;;;;;;5070415;28;20963;-75
2023/03/25 07:50:00;;;;;;;10.05;4.30;;;16.10;99.90;;;;;;5070198;28;20975;-75
2023/03/25 07:52:26;;;;;;;8.90;4.13;;;16.00;99.90;;;;;;5096490;27;20928;-75
2023/03/25 07:54:52;;;;;;;12.10;4.18;;;16.10;99.90;;;;;;5075182;28;20408;-74
2023/03/25 07:57:18;;;;;;;8.80;4.20;;;16.20;99.90;;;;;;5064319;28;20415;-74
2023/03/25 07:59:45;;;;;;;10.82;4.15;;;16.20;99.90;;;;;;5077649;28;20506;-75
2023/03/25 08:02:13;;;;;;;8.95;4.22;;;16.20;99.90;;;;;;5097989;27;20468;-75
2023/03/25 08:04:39;;;;;;;8.23;4.18;;;16.30;99.90;;;;;;5076150;28;20423;-75
2023/03/25 08:07:06;;;;;;;11.13;4.25;;;16.30;99.90;;;;;;5050063;28;20495;-75
2023/03/25 08:09:33;;;;;;;10.47;5.10;;;16.00;99.90;;;;;;5078561;28;20406;-75
2023/03/25 08:11:59;;;;;;;11.18;4.97;;;16.20;99.90;;;;;;5072100;28;20551;-74
2023/03/25 08:14:26;;;;;;;9.50;4.95;;;15.90;99.90;;;;;;5088643;27;20941;-75
2023/03/25 08:16:52;;;;;;;13.18;6.20;;;16.00;99.90;;;;;;5068685;28;20410;-75
2023/03/25 08:19:18;;;;;;;13.18;6.95;;;16.30;99.90;;;;;;5075862;28;20484;-74
2023/03/25 08:21:44;;;;;;;14.63;5.88;;;16.50;99.90;;;;;;5059549;28;20430;-75
2023/03/25 08:24:12;;;;;;;11.95;5.78;;;16.40;99.90;;;;;;5070268;28;20453;-74
2023/03/25 08:26:38;;;;;;;11.27;5.13;;;16.50;99.90;;;;;;5054104;28;20418;-75
2023/03/25 08:29:06;;;;;;;9.15;4.80;;;16.70;99.90;;;;;;5075542;28;20445;-75
2023/03/25 08:31:33;;;;;;;13.40;4.85;;;16.60;99.90;;;;;;5074114;28;20508;-74
2023/03/25 08:34:01;;;;;;;12.57;4.97;;;16.70;99.90;;;;;;5071902;28;20468;-75
2023/03/25 08:36:27;;;;;;;11.60;4.82;;;16.60;99.90;;;;;;5076703;28;20407;-74
2023/03/25 08:38:54;;;;;;;10.82;4.72;;;16.40;99.90;;;;;;5068294;28;20423;-75
2023/03/25 08:41:20;;;;;;;11.65;4.57;;;16.70;99.90;;;;;;5074500;28;20405;-75
2023/03/25 08:43:48;;;;;;;9.60;4.60;;;16.90;99.90;;;;;;5074637;28;20429;-75
2023/03/25 08:46:14;;;;;;;7.83;4.30;;;17.00;99.90;;;;;;5075073;28;20424;-75
2023/03/25 08:48:42;;;;;;;8.00;3.90;;;17.00;99.90;;;;;;5067020;28;20413;-75
2023/03/25 08:51:09;;;;;;;10.45;4.22;;;16.60;99.90;;;;;;5097856;27;20728;-75
2023/03/25 08:53:35;;;;;;;10.70;4.57;;;16.30;99.90;;;;;;5070894;28;20896;-75
2023/03/25 08:56:01;;;;;;;9.67;4.43;;;16.40;99.90;;;;;;5072703;28;20405;-75
2023/03/25 08:58:27;;;;;;;10.25;4.50;;;16.40;99.90;;;;;;5071209;28;20410;-75
2023/03/25 09:00:56;;;;;;;12.93;4.35;;;16.40;99.90;;;;;;5092055;28;20459;-75
2023/03/25 09:03:25;;;;;;;10.67;4.17;;;16.50;99.90;;;;;;5068186;28;20410;-75
2023/03/25 09:05:52;;;;;;;10.68;4.05;;;16.50;99.90;;;;;;5080354;28;20417;-75
2023/03/25 09:08:19;;;;;;;13.32;4.53;;;16.80;99.90;;;;;;5067589;28;21034;-75
2023/03/25 09:10:45;;;;;;;14.10;4.43;;;17.20;99.90;;;;;;5070573;28;20419;-75
2023/03/25 09:13:11;;;;;;;10.85;4.00;;;17.40;99.90;;;;;;5076690;28;20728;-74
2023/03/25 09:15:38;;;;;;;12.90;4.15;;;17.50;99.90;;;;;;5071906;28;20419;-75
2023/03/25 09:18:04;;;;;;;13.75;3.90;;;17.40;99.90;;;;;;5056074;28;20466;-75
2023/03/25 09:20:32;;;;;;;12.85;4.38;;;17.70;99.90;;;;;;5060523;28;20426;-75
2023/03/25 09:22:59;;;;;;;9.75;3.83;;;18.00;99.90;;;;;;5066068;28;20417;-75
2023/03/25 09:25:25;;;;;;;10.32;4.07;;;18.20;99.90;;;;;;5085716;28;20504;-75
2023/03/25 09:27:51;;;;;;;11.35;4.38;;;18.40;99.90;;;;;;5067593;28;20418;-75
2023/03/25 09:30:18;;;;;;;9.45;3.85;;;18.60;99.90;;;;;;5063515;28;20452;-75
2023/03/25 09:32:44;;;;;;;13.70;3.83;;;18.80;99.90;;;;;;5072275;28;20424;-75
2023/03/25 09:35:10;;;;;;;9.65;3.67;;;18.90;99.90;;;;;;5070629;28;20920;-76
2023/03/25 09:37:36;;;;;;;11.82;3.75;;;18.90;99.90;;;;;;5074240;28;20501;-75
2023/03/25 09:40:04;;;;;;;12.35;4.20;;;19.00;99.90;;;;;;5075181;28;20656;-74
2023/03/25 09:43:12;;;;;;;8.32;3.65;;;19.10;99.90;;;;;;5070052;28;20976;-75
2023/03/25 09:45:47;;;;;;;10.93;3.85;;;19.30;99.90;;;;;;5092228;27;20430;-75
2023/03/25 09:48:27;;;;;;;9.67;3.80;;;19.40;99.90;;;;;;5087669;27;20482;-75
2023/03/25 09:50:54;;;;;;;11.88;4.03;;;19.30;99.90;;;;;;5064652;28;20419;-75
2023/03/25 09:53:33;;;;;;;14.82;3.70;;;19.80;99.90;;;;;;5069017;28;20918;-75
2023/03/25 09:56:01;;;;;;;11.57;3.53;;;20.00;99.90;;;;;;5070551;28;20419;-74
2023/03/25 09:59:02;;;;;;;10.52;4.00;;;20.00;99.90;;;;;;5079596;28;20415;-74
2023/03/25 10:02:02;;;;;;;11.73;3.90;;;20.20;99.90;;;;;;5068054;28;20423;-74
2023/03/25 10:04:46;;;;;;;9.70;3.95;;;20.70;99.90;;;;;;5080631;28;20505;-74
2023/03/25 10:08:00;;;;;;;9.43;3.58;;;21.30;99.90;;;;;;5075426;28;20417;-74
2023/03/25 10:11:00;;;;;;;10.98;4.13;;;23.20;99.90;;;;;;5072846;28;20480;-74
2023/03/25 10:13:45;;;;;;;10.88;4.15;;;24.50;99.90;;;;;;5070648;28;20474;-74
2023/03/25 10:17:24;;;;;;;13.73;4.47;;;24.60;99.90;;;;;;5053993;28;20799;-75
2023/03/25 10:20:21;;;;;;;11.52;4.10;;;23.00;99.90;;;;;;5056388;28;20564;-74
2023/03/25 10:23:33;;;;;;;11.65;4.05;;;21.90;99.90;;;;;;5080792;28;20793;-74
2023/03/25 10:26:35;;;;;;;10.13;4.18;;;21.30;99.90;;;;;;5065857;28;20901;-74
2023/03/25 10:29:13;;;;;;;11.75;4.50;;;21.10;99.90;;;;;;5066920;28;20836;-74
2023/03/25 10:31:51;;;;;;;10.77;4.37;;;21.00;99.90;;;;;;5066657;28;20430;-74
2023/03/25 10:34:26;;;;;;;13.55;4.88;;;22.80;99.90;;;;;;5069970;28;20423;-74
2023/03/25 10:36:57;;;;;;;9.73;4.40;;;24.50;99.90;;;;;;5065610;28;20501;-74
2023/03/25 10:39:32;;;;;;;13.63;4.43;;;24.80;99.90;;;;;;5069010;28;20917;-74
2023/03/25 10:42:13;;;;;;;11.77;4.38;;;23.80;99.90;;;;;;5068056;28;20814;-74
2023/03/25 10:44:39;;;;;;;16.45;5.00;;;22.10;99.90;;;;;;5062310;28;20415;-74
2023/03/25 10:47:15;;;;;;;10.43;4.32;;;21.10;99.90;;;;;;5062828;28;20454;-74
2023/03/25 10:49:42;;;;;;;11.13;4.60;;;20.90;99.90;;;;;;5068849;28;20416;-74
2023/03/25 10:52:09;;;;;;;11.93;4.43;;;20.60;99.90;;;;;;5069087;28;20424;-74
2023/03/25 10:54:44;;;;;;;12.75;4.50;;;20.70;99.90;;;;;;5067858;28;20936;-74
2023/03/25 10:57:26;;;;;;;9.23;4.40;;;20.90;99.90;;;;;;5069755;28;20429;-75
2023/03/25 11:00:18;;;;;;;13.43;4.88;;;20.70;99.90;;;;;;5072887;28;20458;-74
2023/03/25 11:02:46;;;;;;;12.35;5.50;;;20.80;99.90;;;;;;5069587;28;20843;-75
2023/03/25 11:05:18;;;;;;;10.07;5.03;;;20.90;99.90;;;;;;5073576;28;20408;-75
2023/03/25 11:07:56;;;;;;;158.13;50.40;;;20.90;99.90;;;;;;5073418;28;20424;-74
2023/03/25 11:10:33;;;;;;;45.58;18.65;;;20.90;99.90;;;;;;5067747;28;20524;-74
2023/03/25 11:13:03;;;;;;;68.20;24.60;;;20.70;99.90;;;;;;5053634;28;20417;-74
2023/03/25 11:15:36;;;;;;;33.92;14.15;;;20.90;99.90;;;;;;5067345;28;20422;-74
2023/03/25 11:18:11;;;;;;;15.57;5.30;;;21.00;99.90;;;;;;5065158;28;20469;-74
2023/03/25 11:20:46;;;;;;;14.00;4.43;;;21.10;99.90;;;;;;5101276;27;20434;-74
2023/03/25 11:23:26;;;;;;;12.27;4.60;;;21.20;99.90;;;;;;5074057;28;20424;-75
2023/03/25 11:25:55;;;;;;;12.68;4.30;;;21.20;99.90;;;;;;5053996;28;20419;-74
2023/03/25 11:28:44;;;;;;;11.38;4.70;;;21.10;99.90;;;;;;5070077;28;20424;-74
2023/03/25 11:31:37;;;;;;;53.30;17.45;;;21.00;99.90;;;;;;5056310;28;20903;-75
2023/03/25 11:34:12;;;;;;;19.73;8.05;;;20.80;99.90;;;;;;5098811;27;20421;-75
2023/03/25 11:37:15;;;;;;;10.93;4.68;;;20.50;99.90;;;;;;5096997;27;20419;-75
2023/03/25 11:39:47;;;;;;;16.73;5.10;;;20.10;99.90;;;;;;5066496;28;20413;-75
2023/03/25 11:42:16;;;;;;;12.43;4.83;;;19.80;99.90;;;;;;5068637;28;20412;-75
2023/03/25 11:44:53;;;;;;;13.23;5.55;;;19.50;99.90;;;;;;5066195;28;20414;-74
2023/03/25 11:47:30;;;;;;;12.38;5.47;;;19.40;99.90;;;;;;5071127;28;20886;-74
2023/03/25 11:49:56;;;;;;;15.10;5.30;;;19.10;99.90;;;;;;5077668;27;20410;-75
2023/03/25 11:52:44;;;;;;;100.63;37.65;;;18.90;99.90;;;;;;5066494;28;22835;-75
2023/03/25 11:55:42;;;;;;;20.67;7.57;;;18.80;99.90;;;;;;5067725;28;20458;-75
2023/03/25 11:58:39;;;;;;;12.73;5.05;;;18.80;99.90;;;;;;5070131;28;21194;-74
2023/03/25 12:01:26;;;;;;;11.73;5.20;;;18.80;99.90;;;;;;5069138;28;21015;-75
2023/03/25 12:04:11;;;;;;;17.80;5.10;;;19.00;99.90;;;;;;5068207;28;20423;-75
2023/03/25 12:07:00;;;;;;;11.80;4.30;;;19.00;99.90;;;;;;5057188;28;20438;-75
2023/03/25 12:09:31;;;;;;;11.73;4.85;;;18.60;99.90;;;;;;5070455;28;20452;-74
2023/03/25 12:12:21;;;;;;;13.52;5.40;;;18.30;99.90;;;;;;5066975;28;20513;-74
2023/03/25 12:15:06;;;;;;;17.08;5.45;;;18.60;99.90;;;;;;5045510;28;20428;-75
2023/03/25 12:18:02;;;;;;;11.25;4.93;;;19.00;99.90;;;;;;5062219;28;21124;-74
2023/03/25 12:20:40;;;;;;;14.23;5.40;;;19.10;99.90;;;;;;5071097;28;20427;-74
2023/03/25 12:23:35;;;;;;;20.77;5.15;;;19.10;99.90;;;;;;5071484;28;21130;-75
2023/03/25 12:26:38;;;;;;;10.80;4.82;;;19.10;99.90;;;;;;5055099;28;20412;-75
2023/03/25 12:29:37;;;;;;;13.27;5.17;;;18.80;99.90;;;;;;5057427;28;20421;-74
2023/03/25 12:32:30;;;;;;;13.15;5.25;;;18.50;99.90;;;;;;5017417;28;20944;-75
2023/03/25 12:35:40;;;;;;;11.43;4.67;;;18.30;99.90;;;;;;5062310;28;20449;-75
2023/03/25 12:38:40;;;;;;;12.67;4.70;;;18.40;99.90;;;;;;5063464;28;20490;-75
2023/03/25 12:41:51;;;;;;;14.10;5.00;;;18.10;99.90;;;;;;5066859;28;20466;-75
2023/03/25 12:45:22;;;;;;;11.75;4.90;;;18.00;99.90;;;;;;5071420;28;20448;-75
2023/03/25 12:48:37;;;;;;;13.98;4.90;;;17.80;99.90;;;;;;5059172;28;20422;-75
2023/03/25 12:51:33;;;;;;;13.60;5.28;;;17.60;99.90;;;;;;4994340;28;20507;-76
2023/03/25 12:55:06;;;;;;;11.68;5.35;;;17.60;99.90;;;;;;5061830;28;20423;-75
2023/03/25 12:58:02;;;;;;;10.90;4.93;;;17.50;99.90;;;;;;5066871;28;20445;-75
2023/03/25 13:00:48;;;;;;;13.95;5.22;;;17.50;99.90;;;;;;5067835;28;20470;-75
2023/03/25 13:03:23;;;;;;;12.70;5.17;;;17.40;99.90;;;;;;5071572;28;20426;-75
2023/03/25 13:06:41;;;;;;;11.18;5.00;;;17.40;99.90;;;;;;5070454;28;20426;-75
2023/03/25 13:09:19;;;;;;;10.73;5.13;;;17.50;99.90;;;;;;5095682;28;20971;-76
2023/03/25 13:11:53;;;;;;;13.23;5.38;;;17.50;99.90;;;;;;5075826;28;21023;-76
2023/03/25 13:14:51;;;;;;;13.57;4.80;;;17.40;99.90;;;;;;5080376;28;20454;-75
2023/03/25 13:17:59;;;;;;;10.13;4.85;;;17.30;99.90;;;;;;5062532;28;20494;-75
2023/03/25 13:20:31;;;;;;;14.90;4.72;;;17.40;99.90;;;;;;5073735;28;20413;-75
2023/03/25 13:23:02;;;;;;;13.57;4.55;;;17.50;99.90;;;;;;5076132;28;21001;-75